sensor_id;sensor_type;location;lat;lon;timestamp;temperature;humidity
56426;DHT22;42330;43.620;3.856;2022-09-01T00:02:15;23.10;89.70
56426;DHT22;42330;43.620;3.856;2022-09-01T00:04:43;23.20;89.50
56426;DHT22;42330;43.620;3.856;2022-09-01T00:07:10;23.20;88.90
56426;DHT22;42330;43.620;3.856;2022-09-01T00:09:37;23.30;88.60
56426;DHT22;42330;43.620;3.856;2022-09-01T00:12:05;23.20;88.60
56426;DHT22;42330;43.620;3.856;2022-09-01T00:14:34;23.10;89.30
56426;DHT22;42330;43.620;3.856;2022-09-01T00:17:03;23.10;89.70
56426;DHT22;42330;43.620;3.856;2022-09-01T00:19:29;23.00;90.00
56426;DHT22;42330;43.620;3.856;2022-09-01T00:21:55;23.00;90.10
56426;DHT22;42330;43.620;3.856;2022-09-01T00:24:21;23.00;90.30
56426;DHT22;42330;43.620;3.856;2022-09-01T00:26:48;23.00;90.20
56426;DHT22;42330;43.620;3.856;2022-09-01T00:29:14;23.00;90.30
56426;DHT22;42330;43.620;3.856;2022-09-01T00:31:40;23.10;89.90
56426;DHT22;42330;43.620;3.856;2022-09-01T00:34:07;23.00;89.50
56426;DHT22;42330;43.620;3.856;2022-09-01T00:36:32;22.90;90.30
56426;DHT22;42330;43.620;3.856;2022-09-01T00:38:58;22.80;90.30
56426;DHT22;42330;43.620;3.856;2022-09-01T00:41:31;22.80;90.30
56426;DHT22;42330;43.620;3.856;2022-09-01T00:44:00;22.70;90.50
56426;DHT22;42330;43.620;3.856;2022-09-01T00:46:32;22.60;91.00
56426;DHT22;42330;43.620;3.856;2022-09-01T00:49:21;22.60;91.10
56426;DHT22;42330;43.620;3.856;2022-09-01T00:51:59;22.60;91.20
56426;DHT22;42330;43.620;3.856;2022-09-01T00:54:30;22.60;91.10
56426;DHT22;42330;43.620;3.856;2022-09-01T00:56:57;22.50;91.30
56426;DHT22;42330;43.620;3.856;2022-09-01T00:59:23;22.50;91.10
56426;DHT22;42330;43.620;3.856;2022-09-01T01:01:50;22.40;91.30
56426;DHT22;42330;43.620;3.856;2022-09-01T01:04:16;22.20;92.10
56426;DHT22;42330;43.620;3.856;2022-09-01T01:07:00;22.20;92.10
56426;DHT22;42330;43.620;3.856;2022-09-01T01:09:29;22.20;92.40
56426;DHT22;42330;43.620;3.856;2022-09-01T01:11:56;22.20;92.50
56426;DHT22;42330;43.620;3.856;2022-09-01T01:14:25;22.20;92.20
56426;DHT22;42330;43.620;3.856;2022-09-01T01:16:57;22.30;92.00
56426;DHT22;42330;43.620;3.856;2022-09-01T01:25:10;22.40;91.60
56426;DHT22;42330;43.620;3.856;2022-09-01T01:27:38;22.40;91.60
56426;DHT22;42330;43.620;3.856;2022-09-01T01:30:08;22.50;91.30
56426;DHT22;42330;43.620;3.856;2022-09-01T01:32:37;22.40;91.40
56426;DHT22;42330;43.620;3.856;2022-09-01T01:35:08;22.30;91.60
56426;DHT22;42330;43.620;3.856;2022-09-01T01:37:37;22.20;92.40
56426;DHT22;42330;43.620;3.856;2022-09-01T01:40:03;22.20;92.40
56426;DHT22;42330;43.620;3.856;2022-09-01T01:42:31;22.20;92.20
56426;DHT22;42330;43.620;3.856;2022-09-01T01:44:57;22.20;92.10
56426;DHT22;42330;43.620;3.856;2022-09-01T01:47:23;22.20;91.90
56426;DHT22;42330;43.620;3.856;2022-09-01T01:49:49;22.00;92.60
56426;DHT22;42330;43.620;3.856;2022-09-01T01:52:15;22.00;92.70
56426;DHT22;42330;43.620;3.856;2022-09-01T01:54:43;21.90;92.90
56426;DHT22;42330;43.620;3.856;2022-09-01T01:57:10;21.90;93.20
56426;DHT22;42330;43.620;3.856;2022-09-01T01:59:36;21.80;93.50
56426;DHT22;42330;43.620;3.856;2022-09-01T02:02:04;21.80;93.70
56426;DHT22;42330;43.620;3.856;2022-09-01T02:04:33;21.80;93.50
56426;DHT22;42330;43.620;3.856;2022-09-01T02:06:59;21.90;93.30
56426;DHT22;42330;43.620;3.856;2022-09-01T02:09:25;21.90;93.30
56426;DHT22;42330;43.620;3.856;2022-09-01T02:11:51;21.70;93.60
56426;DHT22;42330;43.620;3.856;2022-09-01T02:14:22;21.70;93.80
56426;DHT22;42330;43.620;3.856;2022-09-01T02:16:48;21.70;93.70
56426;DHT22;42330;43.620;3.856;2022-09-01T02:19:14;21.70;93.30
56426;DHT22;42330;43.620;3.856;2022-09-01T02:21:44;21.60;93.50
56426;DHT22;42330;43.620;3.856;2022-09-01T02:24:13;21.60;93.50
56426;DHT22;42330;43.620;3.856;2022-09-01T02:26:42;21.50;93.80
56426;DHT22;42330;43.620;3.856;2022-09-01T02:29:18;21.60;93.60
56426;DHT22;42330;43.620;3.856;2022-09-01T02:31:51;21.60;93.40
56426;DHT22;42330;43.620;3.856;2022-09-01T02:34:17;21.50;93.30
56426;DHT22;42330;43.620;3.856;2022-09-01T02:36:47;21.40;93.20
56426;DHT22;42330;43.620;3.856;2022-09-01T02:39:15;21.50;93.20
56426;DHT22;42330;43.620;3.856;2022-09-01T02:41:41;21.70;92.60
56426;DHT22;42330;43.620;3.856;2022-09-01T02:44:07;21.80;91.90
56426;DHT22;42330;43.620;3.856;2022-09-01T02:46:43;21.70;91.90
56426;DHT22;42330;43.620;3.856;2022-09-01T02:49:16;21.80;91.70
56426;DHT22;42330;43.620;3.856;2022-09-01T02:51:46;21.80;91.40
56426;DHT22;42330;43.620;3.856;2022-09-01T02:54:13;21.80;91.30
56426;DHT22;42330;43.620;3.856;2022-09-01T02:56:44;21.80;91.50
56426;DHT22;42330;43.620;3.856;2022-09-01T02:59:14;21.80;91.50
56426;DHT22;42330;43.620;3.856;2022-09-01T03:01:40;21.70;91.90
56426;DHT22;42330;43.620;3.856;2022-09-01T03:04:07;21.70;91.90
56426;DHT22;42330;43.620;3.856;2022-09-01T03:06:35;21.70;91.70
56426;DHT22;42330;43.620;3.856;2022-09-01T03:09:06;21.80;91.20
56426;DHT22;42330;43.620;3.856;2022-09-01T03:11:35;21.90;90.80
56426;DHT22;42330;43.620;3.856;2022-09-01T03:14:02;21.90;90.40
56426;DHT22;42330;43.620;3.856;2022-09-01T03:16:29;21.90;90.40
56426;DHT22;42330;43.620;3.856;2022-09-01T03:18:54;21.80;90.80
56426;DHT22;42330;43.620;3.856;2022-09-01T03:21:20;21.90;90.50
56426;DHT22;42330;43.620;3.856;2022-09-01T03:23:47;21.90;90.20
56426;DHT22;42330;43.620;3.856;2022-09-01T03:26:14;21.80;90.40
56426;DHT22;42330;43.620;3.856;2022-09-01T03:28:43;21.80;90.40
56426;DHT22;42330;43.620;3.856;2022-09-01T03:31:08;21.90;90.30
56426;DHT22;42330;43.620;3.856;2022-09-01T03:33:34;21.80;90.30
56426;DHT22;42330;43.620;3.856;2022-09-01T03:36:01;21.90;90.10
56426;DHT22;42330;43.620;3.856;2022-09-01T03:38:27;21.90;89.80
56426;DHT22;42330;43.620;3.856;2022-09-01T03:41:01;21.80;89.70
56426;DHT22;42330;43.620;3.856;2022-09-01T03:43:27;21.90;89.80
56426;DHT22;42330;43.620;3.856;2022-09-01T03:45:54;21.90;89.60
56426;DHT22;42330;43.620;3.856;2022-09-01T03:48:21;21.80;90.10
56426;DHT22;42330;43.620;3.856;2022-09-01T03:50:49;21.80;90.10
56426;DHT22;42330;43.620;3.856;2022-09-01T03:53:18;21.50;90.60
56426;DHT22;42330;43.620;3.856;2022-09-01T03:55:46;21.40;91.10
56426;DHT22;42330;43.620;3.856;2022-09-01T03:58:13;21.50;90.90
56426;DHT22;42330;43.620;3.856;2022-09-01T04:00:45;21.50;90.80
56426;DHT22;42330;43.620;3.856;2022-09-01T04:03:13;21.40;90.50
56426;DHT22;42330;43.620;3.856;2022-09-01T04:05:43;21.50;90.50
56426;DHT22;42330;43.620;3.856;2022-09-01T04:08:11;21.50;90.40
56426;DHT22;42330;43.620;3.856;2022-09-01T04:10:46;21.30;90.70
56426;DHT22;42330;43.620;3.856;2022-09-01T04:13:22;21.20;91.20
56426;DHT22;42330;43.620;3.856;2022-09-01T04:15:49;21.20;91.00
56426;DHT22;42330;43.620;3.856;2022-09-01T04:18:16;21.30;90.90
56426;DHT22;42330;43.620;3.856;2022-09-01T04:20:47;21.40;90.80
56426;DHT22;42330;43.620;3.856;2022-09-01T04:25:56;21.40;90.00
56426;DHT22;42330;43.620;3.856;2022-09-01T04:28:30;21.40;90.00
56426;DHT22;42330;43.620;3.856;2022-09-01T04:30:59;21.40;89.70
56426;DHT22;42330;43.620;3.856;2022-09-01T04:33:31;21.40;89.70
56426;DHT22;42330;43.620;3.856;2022-09-01T04:38:48;21.30;90.20
56426;DHT22;42330;43.620;3.856;2022-09-01T04:41:15;21.10;90.90
56426;DHT22;42330;43.620;3.856;2022-09-01T04:43:46;21.10;91.10
56426;DHT22;42330;43.620;3.856;2022-09-01T04:46:15;21.00;90.90
56426;DHT22;42330;43.620;3.856;2022-09-01T04:48:42;20.90;91.30
56426;DHT22;42330;43.620;3.856;2022-09-01T04:51:10;21.00;91.30
56426;DHT22;42330;43.620;3.856;2022-09-01T04:53:37;21.10;91.00
56426;DHT22;42330;43.620;3.856;2022-09-01T04:56:07;21.20;90.90
56426;DHT22;42330;43.620;3.856;2022-09-01T04:58:34;21.30;89.10
56426;DHT22;42330;43.620;3.856;2022-09-01T05:01:06;21.40;87.90
56426;DHT22;42330;43.620;3.856;2022-09-01T05:03:37;21.40;86.30
56426;DHT22;42330;43.620;3.856;2022-09-01T05:06:02;21.50;85.50
56426;DHT22;42330;43.620;3.856;2022-09-01T05:08:28;21.50;85.60
56426;DHT22;42330;43.620;3.856;2022-09-01T05:11:02;21.50;84.60
56426;DHT22;42330;43.620;3.856;2022-09-01T05:13:30;21.60;84.30
56426;DHT22;42330;43.620;3.856;2022-09-01T05:16:06;21.60;83.70
56426;DHT22;42330;43.620;3.856;2022-09-01T05:18:38;21.60;83.70
56426;DHT22;42330;43.620;3.856;2022-09-01T05:21:06;21.50;84.20
56426;DHT22;42330;43.620;3.856;2022-09-01T05:23:39;21.40;84.90
56426;DHT22;42330;43.620;3.856;2022-09-01T05:26:10;21.40;85.00
56426;DHT22;42330;43.620;3.856;2022-09-01T05:28:41;21.30;85.70
56426;DHT22;42330;43.620;3.856;2022-09-01T05:31:08;21.20;86.50
56426;DHT22;42330;43.620;3.856;2022-09-01T05:33:34;21.20;86.90
56426;DHT22;42330;43.620;3.856;2022-09-01T05:36:02;21.20;87.20
56426;DHT22;42330;43.620;3.856;2022-09-01T05:38:33;21.20;87.30
56426;DHT22;42330;43.620;3.856;2022-09-01T05:41:02;21.30;87.40
56426;DHT22;42330;43.620;3.856;2022-09-01T05:43:29;21.40;87.10
56426;DHT22;42330;43.620;3.856;2022-09-01T05:45:57;21.40;86.80
56426;DHT22;42330;43.620;3.856;2022-09-01T05:48:23;21.50;86.80
56426;DHT22;42330;43.620;3.856;2022-09-01T05:50:50;21.60;86.70
56426;DHT22;42330;43.620;3.856;2022-09-01T05:53:20;21.60;86.70
56426;DHT22;42330;43.620;3.856;2022-09-01T05:55:51;21.70;86.40
56426;DHT22;42330;43.620;3.856;2022-09-01T05:58:23;21.70;86.70
56426;DHT22;42330;43.620;3.856;2022-09-01T06:00:51;21.80;86.70
56426;DHT22;42330;43.620;3.856;2022-09-01T06:03:19;21.80;86.70
56426;DHT22;42330;43.620;3.856;2022-09-01T06:05:46;21.90;86.30
56426;DHT22;42330;43.620;3.856;2022-09-01T06:08:18;21.90;86.20
56426;DHT22;42330;43.620;3.856;2022-09-01T06:10:44;22.00;85.90
56426;DHT22;42330;43.620;3.856;2022-09-01T06:13:10;22.10;85.90
56426;DHT22;42330;43.620;3.856;2022-09-01T06:15:41;22.20;85.00
56426;DHT22;42330;43.620;3.856;2022-09-01T06:18:11;22.30;84.30
56426;DHT22;42330;43.620;3.856;2022-09-01T06:20:41;22.30;84.10
56426;DHT22;42330;43.620;3.856;2022-09-01T06:23:08;22.30;84.50
56426;DHT22;42330;43.620;3.856;2022-09-01T06:25:37;22.30;84.00
56426;DHT22;42330;43.620;3.856;2022-09-01T06:28:04;22.40;83.70
56426;DHT22;42330;43.620;3.856;2022-09-01T06:30:32;22.50;83.40
56426;DHT22;42330;43.620;3.856;2022-09-01T06:33:01;22.50;83.00
56426;DHT22;42330;43.620;3.856;2022-09-01T06:35:27;22.60;83.20
56426;DHT22;42330;43.620;3.856;2022-09-01T06:37:54;22.60;82.70
56426;DHT22;42330;43.620;3.856;2022-09-01T06:40:21;22.70;82.60
56426;DHT22;42330;43.620;3.856;2022-09-01T06:42:51;22.80;82.80
56426;DHT22;42330;43.620;3.856;2022-09-01T06:45:19;22.80;82.50
56426;DHT22;42330;43.620;3.856;2022-09-01T06:47:46;22.90;82.10
56426;DHT22;42330;43.620;3.856;2022-09-01T06:50:17;22.90;81.80
56426;DHT22;42330;43.620;3.856;2022-09-01T06:52:45;22.90;81.60
56426;DHT22;42330;43.620;3.856;2022-09-01T06:55:12;22.90;80.90
56426;DHT22;42330;43.620;3.856;2022-09-01T06:57:39;23.00;80.40
56426;DHT22;42330;43.620;3.856;2022-09-01T07:00:08;23.00;80.60
56426;DHT22;42330;43.620;3.856;2022-09-01T07:02:52;23.00;80.00
56426;DHT22;42330;43.620;3.856;2022-09-01T07:05:20;23.10;80.00
56426;DHT22;42330;43.620;3.856;2022-09-01T07:07:50;23.10;80.00
56426;DHT22;42330;43.620;3.856;2022-09-01T07:10:17;23.20;79.70
56426;DHT22;42330;43.620;3.856;2022-09-01T07:12:48;23.20;80.20
56426;DHT22;42330;43.620;3.856;2022-09-01T07:15:14;23.30;79.20
56426;DHT22;42330;43.620;3.856;2022-09-01T07:17:48;23.30;79.30
56426;DHT22;42330;43.620;3.856;2022-09-01T07:20:15;23.30;78.90
56426;DHT22;42330;43.620;3.856;2022-09-01T07:22:41;23.40;79.40
56426;DHT22;42330;43.620;3.856;2022-09-01T07:25:07;23.50;79.50
56426;DHT22;42330;43.620;3.856;2022-09-01T07:27:37;23.50;79.40
56426;DHT22;42330;43.620;3.856;2022-09-01T07:30:04;23.60;78.90
56426;DHT22;42330;43.620;3.856;2022-09-01T07:32:31;23.60;78.50
56426;DHT22;42330;43.620;3.856;2022-09-01T07:34:59;23.70;79.20
56426;DHT22;42330;43.620;3.856;2022-09-01T07:37:24;23.70;77.70
56426;DHT22;42330;43.620;3.856;2022-09-01T07:39:52;23.70;77.20
56426;DHT22;42330;43.620;3.856;2022-09-01T07:42:19;23.80;77.60
56426;DHT22;42330;43.620;3.856;2022-09-01T07:44:45;23.90;78.00
56426;DHT22;42330;43.620;3.856;2022-09-01T07:47:11;23.90;76.50
56426;DHT22;42330;43.620;3.856;2022-09-01T07:49:40;24.00;76.10
56426;DHT22;42330;43.620;3.856;2022-09-01T07:52:05;24.10;76.10
56426;DHT22;42330;43.620;3.856;2022-09-01T07:54:31;24.10;76.70
56426;DHT22;42330;43.620;3.856;2022-09-01T07:57:02;24.20;76.20
56426;DHT22;42330;43.620;3.856;2022-09-01T07:59:27;24.20;75.50
56426;DHT22;42330;43.620;3.856;2022-09-01T08:01:54;24.20;75.50
56426;DHT22;42330;43.620;3.856;2022-09-01T08:04:22;24.30;75.30
56426;DHT22;42330;43.620;3.856;2022-09-01T08:06:48;24.40;74.70
56426;DHT22;42330;43.620;3.856;2022-09-01T08:09:14;24.50;75.00
56426;DHT22;42330;43.620;3.856;2022-09-01T08:11:39;24.50;73.90
56426;DHT22;42330;43.620;3.856;2022-09-01T08:14:05;24.60;73.70
56426;DHT22;42330;43.620;3.856;2022-09-01T08:16:31;24.70;73.80
56426;DHT22;42330;43.620;3.856;2022-09-01T08:18:58;24.70;74.40
56426;DHT22;42330;43.620;3.856;2022-09-01T08:21:25;24.80;74.50
56426;DHT22;42330;43.620;3.856;2022-09-01T08:23:52;24.80;72.90
56426;DHT22;42330;43.620;3.856;2022-09-01T08:26:20;24.90;73.10
56426;DHT22;42330;43.620;3.856;2022-09-01T08:28:47;25.00;72.70
56426;DHT22;42330;43.620;3.856;2022-09-01T08:31:15;25.00;72.60
56426;DHT22;42330;43.620;3.856;2022-09-01T08:33:43;25.00;73.50
56426;DHT22;42330;43.620;3.856;2022-09-01T08:36:11;25.00;74.30
56426;DHT22;42330;43.620;3.856;2022-09-01T08:38:37;25.10;72.60
56426;DHT22;42330;43.620;3.856;2022-09-01T08:41:05;25.10;72.30
56426;DHT22;42330;43.620;3.856;2022-09-01T08:46:26;25.20;71.50
56426;DHT22;42330;43.620;3.856;2022-09-01T08:48:54;25.40;72.90
56426;DHT22;42330;43.620;3.856;2022-09-01T08:56:47;25.60;70.60
56426;DHT22;42330;43.620;3.856;2022-09-01T08:59:16;25.60;71.60
56426;DHT22;42330;43.620;3.856;2022-09-01T09:10:23;26.00;66.40
56426;DHT22;42330;43.620;3.856;2022-09-01T09:12:58;26.10;66.10
56426;DHT22;42330;43.620;3.856;2022-09-01T09:15:35;26.30;67.10
56426;DHT22;42330;43.620;3.856;2022-09-01T09:20:43;26.40;66.40
56426;DHT22;42330;43.620;3.856;2022-09-01T09:23:25;26.50;68.50
56426;DHT22;42330;43.620;3.856;2022-09-01T09:25:53;26.70;67.40
56426;DHT22;42330;43.620;3.856;2022-09-01T09:28:19;26.80;66.90
56426;DHT22;42330;43.620;3.856;2022-09-01T09:30:45;26.80;66.30
56426;DHT22;42330;43.620;3.856;2022-09-01T09:33:35;27.00;66.10
56426;DHT22;42330;43.620;3.856;2022-09-01T09:36:20;27.20;65.10
56426;DHT22;42330;43.620;3.856;2022-09-01T09:38:46;27.40;65.60
56426;DHT22;42330;43.620;3.856;2022-09-01T09:41:16;27.40;65.80
56426;DHT22;42330;43.620;3.856;2022-09-01T09:43:48;27.40;65.00
56426;DHT22;42330;43.620;3.856;2022-09-01T09:51:42;27.60;63.90
56426;DHT22;42330;43.620;3.856;2022-09-01T09:54:26;27.80;64.20
56426;DHT22;42330;43.620;3.856;2022-09-01T09:57:11;27.90;62.00
56426;DHT22;42330;43.620;3.856;2022-09-01T10:00:07;28.10;61.40
56426;DHT22;42330;43.620;3.856;2022-09-01T10:02:42;28.20;61.00
56426;DHT22;42330;43.620;3.856;2022-09-01T10:05:25;28.30;62.70
56426;DHT22;42330;43.620;3.856;2022-09-01T10:07:53;28.40;60.70
56426;DHT22;42330;43.620;3.856;2022-09-01T10:12:54;28.60;59.40
56426;DHT22;42330;43.620;3.856;2022-09-01T10:15:27;28.70;60.60
56426;DHT22;42330;43.620;3.856;2022-09-01T10:17:54;28.90;57.20
56426;DHT22;42330;43.620;3.856;2022-09-01T10:20:25;28.90;56.70
56426;DHT22;42330;43.620;3.856;2022-09-01T10:22:51;28.90;55.90
56426;DHT22;42330;43.620;3.856;2022-09-01T10:25:25;29.20;60.00
56426;DHT22;42330;43.620;3.856;2022-09-01T10:28:01;29.20;56.30
56426;DHT22;42330;43.620;3.856;2022-09-01T10:30:30;29.30;56.20
56426;DHT22;42330;43.620;3.856;2022-09-01T10:33:00;29.40;56.30
56426;DHT22;42330;43.620;3.856;2022-09-01T10:35:34;29.30;55.00
56426;DHT22;42330;43.620;3.856;2022-09-01T10:38:28;29.50;55.50
56426;DHT22;42330;43.620;3.856;2022-09-01T10:40:58;29.40;55.50
56426;DHT22;42330;43.620;3.856;2022-09-01T10:43:39;29.70;53.30
56426;DHT22;42330;43.620;3.856;2022-09-01T10:48:53;30.30;53.10
56426;DHT22;42330;43.620;3.856;2022-09-01T10:59:04;31.50;53.30
56426;DHT22;42330;43.620;3.856;2022-09-01T11:04:11;32.00;50.50
56426;DHT22;42330;43.620;3.856;2022-09-01T11:09:22;32.60;46.90
56426;DHT22;42330;43.620;3.856;2022-09-01T11:14:46;33.50;49.80
56426;DHT22;42330;43.620;3.856;2022-09-01T11:17:28;34.10;47.70
56426;DHT22;42330;43.620;3.856;2022-09-01T11:20:31;33.20;44.50
56426;DHT22;42330;43.620;3.856;2022-09-01T11:23:03;32.70;45.60
56426;DHT22;42330;43.620;3.856;2022-09-01T11:25:34;34.20;48.00
56426;DHT22;42330;43.620;3.856;2022-09-01T11:30:43;34.50;44.90
56426;DHT22;42330;43.620;3.856;2022-09-01T11:42:06;33.60;45.20
56426;DHT22;42330;43.620;3.856;2022-09-01T11:47:45;33.30;45.80
56426;DHT22;42330;43.620;3.856;2022-09-01T11:50:31;33.10;46.70
56426;DHT22;42330;43.620;3.856;2022-09-01T11:53:07;32.70;46.30
56426;DHT22;42330;43.620;3.856;2022-09-01T11:55:40;32.50;46.10
56426;DHT22;42330;43.620;3.856;2022-09-01T11:58:12;32.40;47.20
56426;DHT22;42330;43.620;3.856;2022-09-01T12:00:40;32.40;46.80
56426;DHT22;42330;43.620;3.856;2022-09-01T12:05:45;32.40;46.00
56426;DHT22;42330;43.620;3.856;2022-09-01T12:08:17;32.20;47.10
56426;DHT22;42330;43.620;3.856;2022-09-01T12:10:44;32.10;46.80
56426;DHT22;42330;43.620;3.856;2022-09-01T12:13:21;32.00;47.80
56426;DHT22;42330;43.620;3.856;2022-09-01T12:15:58;32.10;47.10
56426;DHT22;42330;43.620;3.856;2022-09-01T12:18:27;31.90;45.90
56426;DHT22;42330;43.620;3.856;2022-09-01T12:20:56;31.80;46.40
56426;DHT22;42330;43.620;3.856;2022-09-01T12:23:26;31.70;47.60
56426;DHT22;42330;43.620;3.856;2022-09-01T12:26:02;31.80;47.50
56426;DHT22;42330;43.620;3.856;2022-09-01T12:28:30;31.70;47.80
56426;DHT22;42330;43.620;3.856;2022-09-01T12:31:05;31.60;47.50
56426;DHT22;42330;43.620;3.856;2022-09-01T12:33:32;31.60;47.20
56426;DHT22;42330;43.620;3.856;2022-09-01T12:36:22;31.60;48.40
56426;DHT22;42330;43.620;3.856;2022-09-01T12:38:49;31.50;48.70
56426;DHT22;42330;43.620;3.856;2022-09-01T12:41:34;31.50;49.40
56426;DHT22;42330;43.620;3.856;2022-09-01T12:44:26;31.50;47.70
56426;DHT22;42330;43.620;3.856;2022-09-01T12:46:54;31.50;49.70
56426;DHT22;42330;43.620;3.856;2022-09-01T12:49:32;31.50;49.40
56426;DHT22;42330;43.620;3.856;2022-09-01T12:57:40;31.30;51.30
56426;DHT22;42330;43.620;3.856;2022-09-01T13:00:19;31.40;52.10
56426;DHT22;42330;43.620;3.856;2022-09-01T13:02:48;31.30;51.60
56426;DHT22;42330;43.620;3.856;2022-09-01T13:05:39;31.50;53.30
56426;DHT22;42330;43.620;3.856;2022-09-01T13:08:11;31.60;53.30
56426;DHT22;42330;43.620;3.856;2022-09-01T13:10:46;31.60;54.00
56426;DHT22;42330;43.620;3.856;2022-09-01T13:13:13;31.60;53.90
56426;DHT22;42330;43.620;3.856;2022-09-01T13:15:45;31.60;54.10
56426;DHT22;42330;43.620;3.856;2022-09-01T13:18:13;31.60;52.90
56426;DHT22;42330;43.620;3.856;2022-09-01T13:20:39;31.50;53.60
56426;DHT22;42330;43.620;3.856;2022-09-01T13:23:06;31.50;54.50
56426;DHT22;42330;43.620;3.856;2022-09-01T13:25:32;31.50;54.40
56426;DHT22;42330;43.620;3.856;2022-09-01T13:27:58;31.40;54.50
56426;DHT22;42330;43.620;3.856;2022-09-01T13:30:24;31.40;53.50
56426;DHT22;42330;43.620;3.856;2022-09-01T13:32:55;31.40;53.90
56426;DHT22;42330;43.620;3.856;2022-09-01T13:35:22;31.40;53.60
56426;DHT22;42330;43.620;3.856;2022-09-01T13:37:49;31.40;53.50
56426;DHT22;42330;43.620;3.856;2022-09-01T13:40:17;31.40;53.30
56426;DHT22;42330;43.620;3.856;2022-09-01T13:42:48;31.40;54.00
56426;DHT22;42330;43.620;3.856;2022-09-01T13:45:16;31.40;53.90
56426;DHT22;42330;43.620;3.856;2022-09-01T13:47:44;31.40;53.40
56426;DHT22;42330;43.620;3.856;2022-09-01T13:50:13;31.60;53.90
56426;DHT22;42330;43.620;3.856;2022-09-01T13:52:42;31.80;53.80
56426;DHT22;42330;43.620;3.856;2022-09-01T13:55:11;31.90;53.00
56426;DHT22;42330;43.620;3.856;2022-09-01T13:57:37;31.80;52.90
56426;DHT22;42330;43.620;3.856;2022-09-01T14:00:09;31.90;52.80
56426;DHT22;42330;43.620;3.856;2022-09-01T14:02:39;31.80;53.10
56426;DHT22;42330;43.620;3.856;2022-09-01T14:05:05;31.90;53.40
56426;DHT22;42330;43.620;3.856;2022-09-01T14:07:31;31.90;52.50
56426;DHT22;42330;43.620;3.856;2022-09-01T14:09:57;31.90;53.20
56426;DHT22;42330;43.620;3.856;2022-09-01T14:12:23;31.80;53.90
56426;DHT22;42330;43.620;3.856;2022-09-01T14:14:48;31.90;52.20
56426;DHT22;42330;43.620;3.856;2022-09-01T14:17:14;31.90;52.90
56426;DHT22;42330;43.620;3.856;2022-09-01T14:19:40;31.70;52.30
56426;DHT22;42330;43.620;3.856;2022-09-01T14:22:06;31.70;53.60
56426;DHT22;42330;43.620;3.856;2022-09-01T14:24:35;31.70;53.90
56426;DHT22;42330;43.620;3.856;2022-09-01T14:27:02;31.70;53.70
56426;DHT22;42330;43.620;3.856;2022-09-01T14:29:27;31.80;53.80
56426;DHT22;42330;43.620;3.856;2022-09-01T14:31:54;31.70;54.00
56426;DHT22;42330;43.620;3.856;2022-09-01T14:34:22;31.60;53.20
56426;DHT22;42330;43.620;3.856;2022-09-01T14:36:49;31.40;53.50
56426;DHT22;42330;43.620;3.856;2022-09-01T14:39:16;31.30;53.70
56426;DHT22;42330;43.620;3.856;2022-09-01T14:41:42;31.30;54.80
56426;DHT22;42330;43.620;3.856;2022-09-01T14:44:07;31.30;54.20
56426;DHT22;42330;43.620;3.856;2022-09-01T14:46:33;31.10;54.10
56426;DHT22;42330;43.620;3.856;2022-09-01T14:49:00;31.10;54.90
56426;DHT22;42330;43.620;3.856;2022-09-01T14:51:27;31.20;54.50
56426;DHT22;42330;43.620;3.856;2022-09-01T14:53:54;31.10;54.10
56426;DHT22;42330;43.620;3.856;2022-09-01T14:56:21;31.10;54.30
56426;DHT22;42330;43.620;3.856;2022-09-01T14:58:47;31.10;54.90
56426;DHT22;42330;43.620;3.856;2022-09-01T15:01:16;31.20;54.50
56426;DHT22;42330;43.620;3.856;2022-09-01T15:03:43;31.10;53.70
56426;DHT22;42330;43.620;3.856;2022-09-01T15:06:12;31.10;54.40
56426;DHT22;42330;43.620;3.856;2022-09-01T15:08:39;31.00;54.90
56426;DHT22;42330;43.620;3.856;2022-09-01T15:11:09;31.00;54.80
56426;DHT22;42330;43.620;3.856;2022-09-01T15:13:36;31.00;55.20
56426;DHT22;42330;43.620;3.856;2022-09-01T15:16:02;31.00;55.00
56426;DHT22;42330;43.620;3.856;2022-09-01T15:18:29;31.00;56.10
56426;DHT22;42330;43.620;3.856;2022-09-01T15:20:54;30.90;54.20
56426;DHT22;42330;43.620;3.856;2022-09-01T15:23:23;30.90;54.40
56426;DHT22;42330;43.620;3.856;2022-09-01T15:25:51;30.70;55.10
56426;DHT22;42330;43.620;3.856;2022-09-01T15:28:18;30.70;55.00
56426;DHT22;42330;43.620;3.856;2022-09-01T15:30:45;30.80;55.50
56426;DHT22;42330;43.620;3.856;2022-09-01T15:33:12;30.70;54.30
56426;DHT22;42330;43.620;3.856;2022-09-01T15:35:38;30.70;54.20
56426;DHT22;42330;43.620;3.856;2022-09-01T15:38:04;30.60;54.30
56426;DHT22;42330;43.620;3.856;2022-09-01T15:40:32;30.60;54.60
56426;DHT22;42330;43.620;3.856;2022-09-01T15:42:58;30.60;54.90
56426;DHT22;42330;43.620;3.856;2022-09-01T15:45:25;30.50;54.00
56426;DHT22;42330;43.620;3.856;2022-09-01T15:47:51;30.50;54.50
56426;DHT22;42330;43.620;3.856;2022-09-01T15:50:20;30.40;53.90
56426;DHT22;42330;43.620;3.856;2022-09-01T15:52:58;30.40;54.40
56426;DHT22;42330;43.620;3.856;2022-09-01T15:55:28;30.60;55.50
56426;DHT22;42330;43.620;3.856;2022-09-01T15:57:56;30.60;54.00
56426;DHT22;42330;43.620;3.856;2022-09-01T16:00:24;30.50;54.70
56426;DHT22;42330;43.620;3.856;2022-09-01T16:02:50;30.40;54.50
56426;DHT22;42330;43.620;3.856;2022-09-01T16:05:16;30.40;54.50
56426;DHT22;42330;43.620;3.856;2022-09-01T16:07:42;30.40;55.40
56426;DHT22;42330;43.620;3.856;2022-09-01T16:10:09;30.40;55.30
56426;DHT22;42330;43.620;3.856;2022-09-01T16:12:42;30.30;55.70
56426;DHT22;42330;43.620;3.856;2022-09-01T16:15:10;30.40;56.90
56426;DHT22;42330;43.620;3.856;2022-09-01T16:20:23;30.30;57.00
56426;DHT22;42330;43.620;3.856;2022-09-01T16:23:19;30.20;57.20
56426;DHT22;42330;43.620;3.856;2022-09-01T16:25:46;30.10;56.90
56426;DHT22;42330;43.620;3.856;2022-09-01T16:28:30;30.10;57.00
56426;DHT22;42330;43.620;3.856;2022-09-01T16:31:11;29.90;56.70
56426;DHT22;42330;43.620;3.856;2022-09-01T16:33:37;29.80;56.60
56426;DHT22;42330;43.620;3.856;2022-09-01T16:45:04;29.50;56.80
56426;DHT22;42330;43.620;3.856;2022-09-01T16:50:10;29.50;57.10
56426;DHT22;42330;43.620;3.856;2022-09-01T16:56:01;29.40;55.80
56426;DHT22;42330;43.620;3.856;2022-09-01T16:58:32;29.40;54.80
56426;DHT22;42330;43.620;3.856;2022-09-01T17:10:11;29.20;56.00
56426;DHT22;42330;43.620;3.856;2022-09-01T17:12:48;29.20;56.00
56426;DHT22;42330;43.620;3.856;2022-09-01T17:15:33;29.20;55.70
56426;DHT22;42330;43.620;3.856;2022-09-01T17:20:38;29.00;55.80
56426;DHT22;42330;43.620;3.856;2022-09-01T17:23:06;29.00;55.90
56426;DHT22;42330;43.620;3.856;2022-09-01T17:25:43;28.90;56.00
56426;DHT22;42330;43.620;3.856;2022-09-01T17:28:17;28.90;56.30
56426;DHT22;42330;43.620;3.856;2022-09-01T17:31:05;28.80;55.90
56426;DHT22;42330;43.620;3.856;2022-09-01T17:37:05;28.70;55.90
56426;DHT22;42330;43.620;3.856;2022-09-01T17:39:50;28.60;55.80